Time;durP1;ratioP1;P1;durP2;ratioP2;P2;SDS_P1;SDS_P2;PMS_P1;PMS_P2;Temp;Humidity;BMP_temperature;BMP_pressure;BME280_temperature;BME280_humidity;BME280_pressure;Samples;Min_cycle;Max_cycle;Signal;HPM_P1;HPM_P2
2023/03/04 00:00:41;;;;;;;4.18;2.20;;;15.80;49.20;;;;;;5112920;28;20674;-53
2023/03/04 00:03:09;;;;;;;3.58;2.10;;;15.80;49.20;;;;;;5112902;28;20207;-56
2023/03/04 00:05:35;;;;;;;3.47;1.52;;;15.70;49.20;;;;;;5111978;28;20181;-55
2023/03/04 00:08:01;;;;;;;4.35;1.80;;;15.70;49.20;;;;;;5112629;28;20169;-54
2023/03/04 00:10:26;;;;;;;2.67;1.50;;;15.80;49.30;;;;;;5112813;28;20177;-53
2023/03/04 00:12:52;;;;;;;3.38;1.38;;;15.70;49.30;;;;;;5111665;28;20176;-52
2023/03/04 00:15:17;;;;;;;3.83;1.85;;;15.70;49.20;;;;;;5112722;28;20229;-54
2023/03/04 00:17:44;;;;;;;3.03;1.63;;;15.70;49.30;;;;;;5112134;28;20208;-54
2023/03/04 00:20:11;;;;;;;4.65;1.77;;;15.70;49.30;;;;;;5111857;28;20635;-52
2023/03/04 00:22:36;;;;;;;3.97;1.63;;;15.60;49.30;;;;;;5112624;28;20259;-55
2023/03/04 00:25:02;;;;;;;3.55;1.80;;;15.70;49.30;;;;;;5112255;28;20634;-55
2023/03/04 00:27:27;;;;;;;4.40;1.65;;;15.70;49.30;;;;;;5112007;28;20682;-53
2023/03/04 00:29:54;;;;;;;3.35;1.67;;;15.70;49.40;;;;;;5112307;28;20516;-54
2023/03/04 00:32:19;;;;;;;2.40;1.48;;;15.60;49.30;;;;;;5112555;28;20177;-53
2023/03/04 00:34:45;;;;;;;4.00;1.67;;;15.60;49.30;;;;;;5111226;28;20658;-55
2023/03/04 00:37:10;;;;;;;3.60;1.83;;;15.60;49.30;;;;;;5112316;28;20212;-54
2023/03/04 00:39:36;;;;;;;4.43;1.60;;;15.60;49.30;;;;;;5111828;28;20193;-53
2023/03/04 00:42:01;;;;;;;3.47;1.75;;;15.60;49.30;;;;;;5112324;28;20181;-55
2023/03/04 00:44:27;;;;;;;2.90;1.75;;;15.60;49.40;;;;;;5112650;28;20173;-53
2023/03/04 00:46:52;;;;;;;3.17;1.50;;;15.60;49.40;;;;;;5111494;28;20215;-55
2023/03/04 00:49:18;;;;;;;3.22;1.95;;;15.60;49.40;;;;;;5112355;28;20256;-54
2023/03/04 00:51:43;;;;;;;3.97;1.65;;;15.60;49.40;;;;;;5112525;28;20245;-53
2023/03/04 00:54:09;;;;;;;3.20;1.40;;;15.60;49.40;;;;;;5115570;28;20177;-52
2023/03/04 00:56:34;;;;;;;3.17;1.67;;;15.60;49.40;;;;;;5116319;28;20204;-54
2023/03/04 00:59:00;;;;;;;3.53;1.83;;;15.60;49.50;;;;;;5116075;28;20169;-53
2023/03/04 01:01:25;;;;;;;3.03;1.60;;;15.50;49.40;;;;;;5115657;28;20173;-55
2023/03/04 01:03:51;;;;;;;3.67;1.38;;;15.50;49.50;;;;;;5115573;28;20165;-56
2023/03/04 01:06:16;;;;;;;2.95;1.90;;;15.50;49.40;;;;;;5116167;28;20177;-55
2023/03/04 01:08:42;;;;;;;3.72;1.85;;;15.50;49.40;;;;;;5115178;28;20252;-54
2023/03/04 01:11:08;;;;;;;3.65;1.50;;;15.50;49.40;;;;;;5116041;28;20185;-55
2023/03/04 01:13:33;;;;;;;3.70;1.60;;;15.50;49.50;;;;;;5116229;28;20214;-55
2023/03/04 01:15:59;;;;;;;3.65;1.73;;;15.50;49.40;;;;;;5114922;28;20177;-55
2023/03/04 01:18:24;;;;;;;4.05;1.60;;;15.50;49.50;;;;;;5115894;28;20211;-55
2023/03/04 01:20:50;;;;;;;5.28;1.60;;;15.50;49.50;;;;;;5115295;28;20718;-52
2023/03/04 01:23:16;;;;;;;4.07;1.40;;;15.50;49.50;;;;;;5115182;28;20173;-54
2023/03/04 01:25:41;;;;;;;2.60;1.40;;;15.50;49.50;;;;;;5115783;28;20165;-53
2023/03/04 01:28:07;;;;;;;3.47;1.40;;;15.40;49.40;;;;;;5115726;28;20169;-55
2023/03/04 01:30:32;;;;;;;4.88;1.50;;;15.50;49.50;;;;;;5115606;28;20218;-54
2023/03/04 01:32:58;;;;;;;3.25;1.63;;;15.40;49.40;;;;;;5115424;28;20260;-52
2023/03/04 01:35:23;;;;;;;3.50;1.27;;;15.50;49.50;;;;;;5115911;28;20176;-55
2023/03/04 01:37:49;;;;;;;2.53;1.40;;;15.40;49.50;;;;;;5114736;28;20572;-53
2023/03/04 01:40:14;;;;;;;3.13;1.52;;;15.40;49.60;;;;;;5115618;28;20165;-53
2023/03/04 01:42:40;;;;;;;2.85;1.60;;;15.50;49.60;;;;;;5115415;28;20184;-55
2023/03/04 01:45:06;;;;;;;3.85;2.00;;;15.40;49.50;;;;;;5113207;28;20172;-55
2023/03/04 01:47:32;;;;;;;4.00;1.60;;;15.40;49.50;;;;;;5115259;28;20177;-54
2023/03/04 01:49:57;;;;;;;4.75;1.73;;;15.40;49.40;;;;;;5114432;28;20624;-54
2023/03/04 01:52:23;;;;;;;2.83;1.30;;;15.40;49.50;;;;;;5115063;28;20192;-54
2023/03/04 01:54:49;;;;;;;2.20;1.30;;;15.40;49.50;;;;;;5113804;28;20205;-53
2023/03/04 01:57:24;;;;;;;3.08;1.50;;;15.30;49.50;;;;;;5114432;28;20205;-54
2023/03/04 02:00:14;;;;;;;4.00;1.42;;;15.40;49.60;;;;;;5113984;28;20169;-52
2023/03/04 02:02:40;;;;;;;2.47;1.25;;;15.30;49.40;;;;;;5115471;28;20268;-55
2023/03/04 02:05:05;;;;;;;2.92;1.20;;;15.30;49.50;;;;;;5114405;28;20256;-54
2023/03/04 02:07:31;;;;;;;2.38;1.20;;;15.40;49.60;;;;;;5114000;28;20258;-55
2023/03/04 02:09:56;;;;;;;3.28;1.33;;;15.30;49.50;;;;;;5113935;28;20177;-50
2023/03/04 02:12:22;;;;;;;3.22;1.45;;;15.30;49.60;;;;;;5114454;28;20234;-53
2023/03/04 02:14:48;;;;;;;2.97;1.50;;;15.30;49.60;;;;;;5114736;28;20173;-54
2023/03/04 02:17:13;;;;;;;3.78;1.42;;;15.30;49.60;;;;;;5113756;28;20617;-52
2023/03/04 02:19:49;;;;;;;3.55;1.73;;;15.30;49.60;;;;;;5114555;28;20177;-55
2023/03/04 02:22:15;;;;;;;2.05;1.20;;;15.30;49.60;;;;;;5113594;28;20274;-54
2023/03/04 02:24:49;;;;;;;3.45;1.27;;;15.30;49.60;;;;;;5115005;28;20527;-52
2023/03/04 02:27:14;;;;;;;2.10;1.30;;;15.30;49.60;;;;;;5095906;28;20234;-52
2023/03/04 02:29:40;;;;;;;2.53;1.08;;;15.30;49.60;;;;;;5114931;28;20535;-54
2023/03/04 02:32:05;;;;;;;3.65;1.30;;;15.30;49.60;;;;;;5113808;28;20590;-54
2023/03/04 02:34:32;;;;;;;3.72;1.42;;;15.30;49.60;;;;;;5096694;28;20632;-55
2023/03/04 02:36:58;;;;;;;3.35;1.55;;;15.20;49.60;;;;;;5114462;28;20205;-54
2023/03/04 02:39:43;;;;;;;3.92;1.35;;;15.20;49.60;;;;;;5113483;28;20175;-52
2023/03/04 02:42:09;;;;;;;3.78;1.38;;;15.20;49.60;;;;;;5114489;27;20252;-51
2023/03/04 02:44:44;;;;;;;2.78;1.60;;;15.20;49.60;;;;;;5114296;28;20597;-52
2023/03/04 02:47:10;;;;;;;2.67;1.48;;;15.20;49.60;;;;;;5113532;28;20242;-54
2023/03/04 02:49:37;;;;;;;2.10;1.25;;;15.20;49.60;;;;;;5114162;28;20631;-53
2023/03/04 02:52:19;;;;;;;3.03;1.05;;;15.20;49.60;;;;;;5113649;28;20539;-51
2023/03/04 02:54:45;;;;;;;2.35;1.30;;;15.20;49.60;;;;;;5113101;28;20237;-53
2023/03/04 02:57:11;;;;;;;3.67;1.65;;;15.20;49.60;;;;;;5113860;28;20205;-54
2023/03/04 02:59:37;;;;;;;1.98;1.20;;;15.20;49.60;;;;;;5114001;28;20275;-55
2023/03/04 03:02:03;;;;;;;2.90;1.40;;;15.20;49.70;;;;;;5112829;28;20259;-53
2023/03/04 03:04:28;;;;;;;1.50;1.00;;;15.20;49.70;;;;;;5113775;28;20643;-53
2023/03/04 03:06:54;;;;;;;2.42;1.20;;;15.20;49.70;;;;;;5113331;28;20185;-49
2023/03/04 03:09:19;;;;;;;2.85;1.55;;;15.20;49.80;;;;;;5113261;28;20639;-53
2023/03/04 03:11:45;;;;;;;3.55;1.65;;;15.10;49.60;;;;;;5113436;28;20177;-54
2023/03/04 03:14:11;;;;;;;3.78;1.42;;;15.20;49.80;;;;;;5112613;28;20264;-54
2023/03/04 03:16:36;;;;;;;2.75;1.30;;;15.10;49.60;;;;;;5113188;28;20208;-52
2023/03/04 03:19:02;;;;;;;3.45;1.40;;;15.10;49.70;;;;;;5112920;28;20177;-51
2023/03/04 03:21:27;;;;;;;2.53;1.33;;;15.10;49.70;;;;;;5112592;28;20231;-50
2023/03/04 03:23:53;;;;;;;2.45;1.45;;;15.10;49.70;;;;;;5113366;28;20172;-54
2023/03/04 03:26:18;;;;;;;2.00;1.20;;;15.10;49.70;;;;;;5113396;28;20166;-54
2023/03/04 03:28:44;;;;;;;2.65;1.20;;;15.10;49.70;;;;;;5112439;28;20693;-54
2023/03/04 03:31:09;;;;;;;3.83;1.10;;;15.10;49.80;;;;;;5113389;28;20558;-53
2023/03/04 03:33:35;;;;;;;3.45;1.30;;;15.10;49.70;;;;;;5113201;28;20204;-53
2023/03/04 03:36:01;;;;;;;2.58;1.42;;;15.10;49.70;;;;;;5112113;28;20393;-52
2023/03/04 03:38:26;;;;;;;2.88;1.33;;;15.10;49.70;;;;;;5113326;28;20205;-50
2023/03/04 03:40:52;;;;;;;2.35;1.20;;;15.10;49.80;;;;;;5112684;28;20230;-54
2023/03/04 03:43:17;;;;;;;2.38;1.40;;;15.10;49.80;;;;;;5112478;28;20260;-54
2023/03/04 03:45:43;;;;;;;2.95;1.15;;;15.10;49.80;;;;;;5112643;28;20184;-54
2023/03/04 03:48:09;;;;;;;2.33;1.00;;;15.10;49.80;;;;;;5113049;28;20179;-49
2023/03/04 03:50:34;;;;;;;2.33;1.00;;;15.10;49.80;;;;;;5112059;28;20173;-53
2023/03/04 03:53:00;;;;;;;2.17;1.20;;;15.00;49.70;;;;;;5112725;28;20234;-50
2023/03/04 03:55:25;;;;;;;2.33;1.15;;;15.10;49.80;;;;;;5112993;28;20256;-54
2023/03/04 03:57:51;;;;;;;3.50;1.30;;;15.00;49.70;;;;;;5112100;28;20240;-54
2023/03/04 04:00:17;;;;;;;2.67;1.00;;;15.10;49.80;;;;;;5112911;28;20169;-55
2023/03/04 04:02:42;;;;;;;2.92;1.42;;;15.00;50.30;;;;;;5112452;28;20180;-54
2023/03/04 04:05:08;;;;;;;4.05;1.35;;;15.00;49.70;;;;;;5111817;28;20277;-54
2023/03/04 04:07:34;;;;;;;2.10;1.20;;;15.00;49.80;;;;;;5112774;28;20524;-55
2023/03/04 04:10:00;;;;;;;2.20;1.10;;;15.00;49.80;;;;;;5112490;28;20181;-53
2023/03/04 04:12:25;;;;;;;2.10;1.00;;;15.00;50.50;;;;;;5112028;28;20596;-54
2023/03/04 04:14:51;;;;;;;2.03;0.90;;;15.00;49.80;;;;;;5112446;28;20649;-55
2023/03/04 04:17:16;;;;;;;2.53;1.33;;;15.00;49.90;;;;;;5112598;28;20200;-53
2023/03/04 04:19:42;;;;;;;1.58;1.08;;;15.00;49.80;;;;;;5111584;28;20259;-50
2023/03/04 04:22:15;;;;;;;1.70;1.05;;;15.00;49.90;;;;;;5112509;28;20664;-54
2023/03/04 04:24:41;;;;;;;2.35;0.95;;;15.00;49.90;;;;;;5110747;28;20174;-53
2023/03/04 04:27:07;;;;;;;3.13;1.33;;;15.00;49.90;;;;;;5113762;28;20179;-54
2023/03/04 04:29:32;;;;;;;3.08;1.25;;;15.00;49.90;;;;;;5116720;28;20180;-53
2023/03/04 04:31:58;;;;;;;1.08;0.70;;;14.90;49.90;;;;;;5115808;28;20181;-52
2023/03/04 04:34:24;;;;;;;4.32;1.40;;;14.90;49.90;;;;;;5116718;28;20175;-54
2023/03/04 04:36:49;;;;;;;2.97;1.33;;;14.90;49.90;;;;;;5116551;28;20652;-53
2023/03/04 04:39:15;;;;;;;1.48;0.85;;;14.90;49.90;;;;;;5115929;28;20269;-55
2023/03/04 04:41:41;;;;;;;1.98;1.10;;;14.90;49.90;;;;;;5116468;28;20197;-54
2023/03/04 04:44:07;;;;;;;2.22;1.45;;;14.90;49.90;;;;;;5116719;28;20185;-51
2023/03/04 04:46:32;;;;;;;2.25;1.33;;;15.00;50.00;;;;;;5115694;28;20181;-54
2023/03/04 04:48:58;;;;;;;2.38;1.40;;;14.90;49.90;;;;;;5116111;28;20177;-54
2023/03/04 04:51:24;;;;;;;1.83;1.13;;;14.90;49.90;;;;;;5116523;28;20209;-52
2023/03/04 04:53:49;;;;;;;2.97;1.20;;;14.90;49.90;;;;;;5115564;28;20256;-54
2023/03/04 04:56:16;;;;;;;2.25;1.30;;;14.90;49.90;;;;;;5116283;28;20176;-54
2023/03/04 04:58:42;;;;;;;1.73;0.80;;;14.90;49.90;;;;;;5115969;28;20200;-54
2023/03/04 05:01:08;;;;;;;2.05;0.90;;;14.90;49.90;;;;;;5115471;28;20627;-55
2023/03/04 05:03:34;;;;;;;2.42;0.95;;;14.90;49.90;;;;;;5115987;28;20176;-54
2023/03/04 05:05:59;;;;;;;1.75;0.93;;;14.90;50.00;;;;;;5115966;28;20173;-54
2023/03/04 05:08:25;;;;;;;2.78;1.02;;;14.90;50.00;;;;;;5115313;28;20695;-54
2023/03/04 05:10:51;;;;;;;3.85;1.27;;;14.90;50.00;;;;;;5115638;28;20169;-54
2023/03/04 05:13:18;;;;;;;2.20;1.25;;;14.90;50.00;;;;;;5116007;28;20185;-55
2023/03/04 05:15:44;;;;;;;2.53;1.13;;;14.80;50.00;;;;;;5115312;28;20178;-54
2023/03/04 05:18:09;;;;;;;3.95;1.77;;;14.80;49.90;;;;;;5115865;28;20205;-54
2023/03/04 05:20:35;;;;;;;2.22;1.35;;;14.90;50.00;;;;;;5115797;28;20172;-54
2023/03/04 05:23:00;;;;;;;1.65;1.10;;;14.80;50.00;;;;;;5114978;28;20271;-54
2023/03/04 05:25:26;;;;;;;1.73;0.90;;;14.80;49.90;;;;;;5115841;28;20180;-54
2023/03/04 05:27:51;;;;;;;2.05;1.00;;;14.80;49.90;;;;;;5114741;28;20176;-53
2023/03/04 05:30:17;;;;;;;1.38;1.27;;;14.80;49.90;;;;;;5115689;28;20169;-53
2023/03/04 05:32:42;;;;;;;1.23;1.00;;;14.80;50.00;;;;;;5115322;28;20184;-54
2023/03/04 05:35:08;;;;;;;2.95;1.23;;;14.80;50.00;;;;;;5114970;28;20169;-54
2023/03/04 05:37:34;;;;;;;2.75;1.10;;;14.80;50.00;;;;;;5115103;28;20526;-51
2023/03/04 05:39:59;;;;;;;1.80;1.25;;;14.80;50.00;;;;;;5115397;28;20619;-52
2023/03/04 05:42:25;;;;;;;2.53;1.23;;;14.80;50.00;;;;;;5114764;28;20176;-51
2023/03/04 05:44:50;;;;;;;2.53;1.05;;;14.80;50.00;;;;;;5115064;28;20578;-52
2023/03/04 05:47:16;;;;;;;1.38;1.10;;;14.80;50.00;;;;;;5115069;28;20173;-50
2023/03/04 05:49:43;;;;;;;1.45;0.80;;;14.80;50.00;;;;;;5114498;28;20538;-54
2023/03/04 05:52:09;;;;;;;1.85;1.13;;;14.80;50.00;;;;;;5115427;28;20177;-52
2023/03/04 05:54:34;;;;;;;2.28;1.10;;;14.80;50.10;;;;;;5115319;28;20526;-48
2023/03/04 05:57:01;;;;;;;2.55;1.30;;;14.80;50.00;;;;;;5114121;28;20277;-49
2023/03/04 05:59:26;;;;;;;1.70;1.02;;;14.80;50.10;;;;;;5115040;28;20170;-54
2023/03/04 06:01:52;;;;;;;2.70;1.10;;;14.80;50.10;;;;;;5114674;28;20177;-54
2023/03/04 06:04:17;;;;;;;1.98;1.00;;;14.80;50.00;;;;;;5114200;28;20291;-54
2023/03/04 06:06:45;;;;;;;1.75;0.88;;;14.80;50.00;;;;;;5114585;28;20181;-55
2023/03/04 06:09:10;;;;;;;1.40;0.80;;;14.90;49.90;;;;;;5114824;28;20181;-50
2023/03/04 06:11:36;;;;;;;1.55;1.00;;;15.00;49.80;;;;;;5114164;28;20204;-51
2023/03/04 06:14:02;;;;;;;2.17;1.02;;;15.10;49.70;;;;;;5114486;28;20189;-52
2023/03/04 06:16:27;;;;;;;1.75;1.10;;;15.20;49.60;;;;;;5114624;28;20177;-53
2023/03/04 06:18:53;;;;;;;1.48;0.80;;;15.30;49.40;;;;;;5113939;28;20180;-54
2023/03/04 06:21:18;;;;;;;1.77;1.02;;;15.40;49.30;;;;;;5114358;28;20578;-51
2023/03/04 06:23:44;;;;;;;2.28;0.95;;;15.60;49.10;;;;;;5114310;28;20654;-53
2023/03/04 06:26:14;;;;;;;1.85;1.15;;;15.70;48.90;;;;;;5113774;28;20256;-54
2023/03/04 06:28:40;;;;;;;1.33;0.70;;;15.80;48.70;;;;;;5114522;28;20264;-53
2023/03/04 06:31:05;;;;;;;1.08;0.75;;;16.00;48.60;;;;;;5113749;28;20199;-52
2023/03/04 06:33:31;;;;;;;1.45;0.70;;;16.00;48.50;;;;;;5114368;28;20177;-54
2023/03/04 06:35:57;;;;;;;1.92;0.90;;;16.10;48.40;;;;;;5114300;28;20234;-51
2023/03/04 06:38:23;;;;;;;1.60;0.80;;;16.10;48.30;;;;;;5113910;28;20312;-53
2023/03/04 06:40:48;;;;;;;1.00;0.90;;;16.10;48.30;;;;;;5114313;28;20177;-54
2023/03/04 06:43:14;;;;;;;1.20;0.80;;;16.20;48.40;;;;;;5114601;28;20180;-53
2023/03/04 06:45:39;;;;;;;1.98;1.15;;;16.20;48.90;;;;;;5113690;28;20169;-55
2023/03/04 06:48:05;;;;;;;0.98;0.80;;;16.20;48.30;;;;;;5114186;28;20181;-53
2023/03/04 06:50:30;;;;;;;1.40;0.93;;;16.20;48.90;;;;;;5113522;28;20184;-51
2023/03/04 06:52:56;;;;;;;0.88;0.63;;;16.20;48.20;;;;;;5113730;28;20173;-54
2023/03/04 06:55:22;;;;;;;1.33;0.80;;;16.30;48.20;;;;;;5114319;28;20181;-53
2023/03/04 06:57:47;;;;;;;1.30;1.00;;;16.20;48.20;;;;;;5114048;28;20231;-55
2023/03/04 07:00:13;;;;;;;0.65;0.60;;;16.20;48.30;;;;;;5113581;28;20184;-53
2023/03/04 07:02:39;;;;;;;1.73;0.90;;;16.20;48.40;;;;;;5114383;28;20242;-55
2023/03/04 07:05:05;;;;;;;1.33;0.70;;;16.20;48.40;;;;;;5113663;28;20195;-53
2023/03/04 07:07:30;;;;;;;2.08;0.90;;;16.20;48.50;;;;;;5113565;28;20180;-55
2023/03/04 07:09:56;;;;;;;2.47;0.85;;;16.30;48.50;;;;;;5113729;28;20179;-52
2023/03/04 07:12:21;;;;;;;1.05;0.80;;;16.50;48.30;;;;;;5114045;28;20179;-53
2023/03/04 07:14:47;;;;;;;2.03;0.90;;;16.60;48.20;;;;;;5112872;28;20734;-50
2023/03/04 07:17:12;;;;;;;1.33;0.77;;;16.80;47.90;;;;;;5113721;28;20242;-55
2023/03/04 07:19:38;;;;;;;2.08;0.80;;;17.20;47.50;;;;;;5113912;28;20226;-54
2023/03/04 07:22:03;;;;;;;1.10;0.80;;;17.40;47.00;;;;;;5112653;28;20228;-51
2023/03/04 07:24:29;;;;;;;1.27;0.90;;;17.40;46.90;;;;;;5113940;28;20256;-51
2023/03/04 07:26:54;;;;;;;0.88;0.75;;;17.60;46.70;;;;;;5113615;28;20702;-51
2023/03/04 07:29:20;;;;;;;1.02;0.80;;;17.70;46.50;;;;;;5112944;28;20177;-53
2023/03/04 07:31:45;;;;;;;0.68;0.68;;;17.80;46.40;;;;;;5113452;28;20197;-54
2023/03/04 07:34:12;;;;;;;1.15;0.60;;;17.80;46.30;;;;;;5113893;28;20267;-49
2023/03/04 07:36:37;;;;;;;1.90;0.85;;;17.80;46.30;;;;;;5112927;28;20209;-53
2023/03/04 07:39:03;;;;;;;0.63;0.63;;;17.80;46.20;;;;;;5113509;28;20662;-52
2023/03/04 07:41:29;;;;;;;1.67;0.82;;;17.80;46.20;;;;;;5112832;28;20173;-54
2023/03/04 07:43:56;;;;;;;0.60;0.60;;;17.80;46.40;;;;;;5113286;28;20177;-54
2023/03/04 07:46:21;;;;;;;1.40;0.70;;;17.80;46.40;;;;;;5113701;28;20256;-55
2023/03/04 07:48:47;;;;;;;2.38;1.02;;;17.80;46.50;;;;;;5112671;28;20273;-52
2023/03/04 07:51:17;;;;;;;1.05;0.75;;;17.80;46.60;;;;;;5113799;28;20179;-51
2023/03/04 07:53:44;;;;;;;1.38;0.85;;;17.70;46.50;;;;;;5113214;28;20173;-53
2023/03/04 07:56:12;;;;;;;1.50;0.60;;;17.80;46.70;;;;;;5111582;28;20181;-55
2023/03/04 07:58:38;;;;;;;0.82;0.52;;;17.80;46.70;;;;;;5113145;28;20728;-54
2023/03/04 08:01:17;;;;;;;1.98;0.90;;;17.70;46.70;;;;;;5112813;28;20227;-56
2023/03/04 08:03:43;;;;;;;2.05;0.68;;;17.70;46.70;;;;;;5112448;28;20238;-53
2023/03/04 08:06:10;;;;;;;1.70;0.82;;;17.70;46.90;;;;;;5113264;28;20200;-55
2023/03/04 08:08:36;;;;;;;0.93;0.90;;;17.70;46.90;;;;;;5113121;28;20674;-54
2023/03/04 08:11:08;;;;;;;1.67;0.77;;;17.60;46.90;;;;;;5112169;28;20173;-54
2023/03/04 08:13:34;;;;;;;2.13;0.80;;;17.50;47.00;;;;;;5113374;28;20591;-54
2023/03/04 08:15:59;;;;;;;0.80;0.60;;;17.50;47.30;;;;;;5112934;28;20169;-56
2023/03/04 08:18:25;;;;;;;0.80;0.60;;;17.40;47.30;;;;;;5112119;28;20291;-54
2023/03/04 08:20:51;;;;;;;0.98;0.70;;;17.30;47.40;;;;;;5112781;28;20227;-55
2023/03/04 08:23:17;;;;;;;1.63;0.75;;;17.20;47.60;;;;;;5113245;28;20545;-52
2023/03/04 08:25:42;;;;;;;1.10;0.60;;;17.20;47.70;;;;;;5111920;28;20701;-54
2023/03/04 08:28:08;;;;;;;1.05;0.80;;;17.20;47.90;;;;;;5113084;28;20176;-53
2023/03/04 08:30:33;;;;;;;1.67;0.77;;;17.10;47.90;;;;;;5113127;28;20207;-54
2023/03/04 08:33:00;;;;;;;0.98;0.60;;;17.10;48.00;;;;;;5110772;28;20177;-55
2023/03/04 08:35:26;;;;;;;1.33;0.80;;;17.10;47.90;;;;;;5113147;28;20176;-54
2023/03/04 08:37:51;;;;;;;1.02;0.70;;;17.20;48.00;;;;;;5111799;28;20963;-55
2023/03/04 08:40:17;;;;;;;2.30;0.80;;;17.20;47.90;;;;;;5113044;28;20161;-56
2023/03/04 08:42:42;;;;;;;1.63;0.70;;;17.20;47.90;;;;;;5112700;28;20176;-54
2023/03/04 08:45:09;;;;;;;2.33;0.63;;;17.20;47.90;;;;;;5112260;28;20173;-53
2023/03/04 08:47:34;;;;;;;1.75;0.88;;;17.30;47.90;;;;;;5113027;28;20188;-55
2023/03/04 08:50:00;;;;;;;0.77;0.65;;;17.30;47.80;;;;;;5112950;28;20165;-55
2023/03/04 08:52:25;;;;;;;2.08;0.90;;;17.30;47.90;;;;;;5112398;28;20264;-54
2023/03/04 08:54:51;;;;;;;1.00;0.68;;;17.30;47.90;;;;;;5111357;28;20260;-55
2023/03/04 08:57:16;;;;;;;0.93;0.60;;;17.30;47.80;;;;;;5112784;28;20221;-71
2023/03/04 08:59:42;;;;;;;1.80;0.70;;;17.30;47.90;;;;;;5111947;28;20310;-72
2023/03/04 09:02:08;;;;;;;1.13;0.60;;;17.20;48.10;;;;;;5112417;28;20409;-67
2023/03/04 09:04:34;;;;;;;1.75;0.80;;;17.20;48.50;;;;;;5111193;28;20184;-65
2023/03/04 09:06:59;;;;;;;3.25;0.90;;;17.10;48.70;;;;;;5111612;28;20628;-65
2023/03/04 09:09:25;;;;;;;1.33;0.70;;;17.10;48.80;;;;;;5112441;28;20180;-64
2023/03/04 09:11:50;;;;;;;0.82;0.60;;;17.10;48.90;;;;;;5123506;28;20168;-64
2023/03/04 09:14:16;;;;;;;3.35;1.00;;;17.10;48.90;;;;;;5121238;27;20620;-64
2023/03/04 09:16:41;;;;;;;2.13;0.90;;;17.10;48.90;;;;;;5115406;28;20212;-64
2023/03/04 09:19:07;;;;;;;0.55;0.50;;;17.10;48.90;;;;;;5132945;27;20207;-65
2023/03/04 09:21:32;;;;;;;1.63;0.65;;;17.10;48.80;;;;;;5135278;27;20216;-64
2023/03/04 09:23:58;;;;;;;2.63;0.73;;;17.10;48.80;;;;;;5135824;27;20168;-64
2023/03/04 09:26:25;;;;;;;1.08;0.70;;;17.10;48.80;;;;;;5129537;27;20232;-64
2023/03/04 09:28:51;;;;;;;1.05;0.60;;;17.20;48.80;;;;;;5114709;28;20173;-64
2023/03/04 09:31:17;;;;;;;2.75;0.73;;;17.10;48.70;;;;;;5115849;28;20177;-65
2023/03/04 09:33:42;;;;;;;2.08;0.80;;;17.10;48.80;;;;;;5115369;28;20218;-66
2023/03/04 09:36:09;;;;;;;1.52;0.68;;;17.10;48.80;;;;;;5114804;28;20246;-65
2023/03/04 09:38:37;;;;;;;2.10;0.93;;;17.00;48.80;;;;;;5115570;28;20213;-65
2023/03/04 09:41:05;;;;;;;2.35;0.85;;;17.00;48.90;;;;;;5114523;28;20173;-65
2023/03/04 09:43:31;;;;;;;1.42;0.60;;;17.00;48.90;;;;;;5122381;27;20193;-64
2023/03/04 09:46:03;;;;;;;1.92;0.63;;;17.00;48.90;;;;;;5117471;27;20519;-64
2023/03/04 09:48:32;;;;;;;0.80;0.60;;;17.10;48.80;;;;;;5101894;28;20687;-64
2023/03/04 09:51:06;;;;;;;1.88;0.80;;;17.10;48.70;;;;;;5113787;28;20233;-64
2023/03/04 09:53:54;;;;;;;2.10;0.80;;;17.10;48.70;;;;;;5114232;28;20192;-68
2023/03/04 09:56:20;;;;;;;1.60;0.85;;;17.10;48.60;;;;;;5113517;28;20204;-69
2023/03/04 09:58:48;;;;;;;4.60;0.80;;;17.10;48.80;;;;;;5113579;28;20682;-70
2023/03/04 10:02:00;;;;;;;1.13;0.55;;;17.10;49.10;;;;;;5113938;28;20375;-68
2023/03/04 10:04:33;;;;;;;3.10;0.98;;;17.10;49.20;;;;;;5110134;28;20181;-69
2023/03/04 10:06:59;;;;;;;2.15;0.75;;;17.10;49.30;;;;;;5113513;28;20173;-68
2023/03/04 10:09:43;;;;;;;2.88;1.30;;;17.10;49.50;;;;;;5114054;28;20557;-68
2023/03/04 10:12:14;;;;;;;0.95;0.70;;;17.10;49.50;;;;;;5115094;27;20218;-68
2023/03/04 10:14:43;;;;;;;1.48;0.75;;;17.10;49.60;;;;;;5113784;28;20567;-69
2023/03/04 10:17:27;;;;;;;0.93;0.70;;;17.10;49.60;;;;;;5112789;28;20220;-69
2023/03/04 10:20:15;;;;;;;1.25;0.80;;;17.10;49.60;;;;;;5114382;28;20170;-76
2023/03/04 10:22:45;;;;;;;3.05;0.70;;;17.10;49.70;;;;;;5114468;28;20296;-72
2023/03/04 10:25:25;;;;;;;3.25;0.68;;;17.00;49.80;;;;;;5112971;28;20173;-73
2023/03/04 10:28:14;;;;;;;1.90;0.60;;;17.00;49.90;;;;;;5114274;28;20173;-66
2023/03/04 10:30:45;;;;;;;3.88;0.90;;;16.90;50.20;;;;;;5112916;28;20169;-66
2023/03/04 10:33:15;;;;;;;3.10;1.10;;;16.90;50.30;;;;;;5113443;28;20223;-65
2023/03/04 10:35:42;;;;;;;3.75;0.80;;;16.80;50.40;;;;;;5114495;28;20181;-65
2023/03/04 10:38:08;;;;;;;3.95;1.23;;;16.80;50.40;;;;;;5112429;28;20209;-65
2023/03/04 10:40:37;;;;;;;2.05;1.15;;;16.70;50.40;;;;;;5113467;28;20221;-64
2023/03/04 10:43:06;;;;;;;3.85;1.02;;;16.70;50.40;;;;;;5114352;28;20225;-65
2023/03/04 10:45:35;;;;;;;1.58;0.70;;;16.60;50.50;;;;;;5113983;28;20173;-66
2023/03/04 10:48:01;;;;;;;2.60;0.88;;;16.70;50.60;;;;;;5112955;28;20204;-65
2023/03/04 10:50:27;;;;;;;2.60;0.70;;;16.60;50.70;;;;;;5114522;28;20212;-64
2023/03/04 10:52:54;;;;;;;2.22;0.70;;;16.60;50.70;;;;;;5113505;28;20169;-65
2023/03/04 10:55:26;;;;;;;2.03;0.73;;;16.60;50.60;;;;;;5113196;28;20180;-64
2023/03/04 10:57:53;;;;;;;7.45;1.02;;;16.60;50.60;;;;;;5114207;28;20216;-65
2023/03/04 11:00:26;;;;;;;1.80;0.82;;;16.70;50.40;;;;;;5112608;28;20219;-66
2023/03/04 11:03:12;;;;;;;1.50;0.90;;;16.70;50.50;;;;;;5112898;28;20181;-65
2023/03/04 11:05:37;;;;;;;1.45;0.63;;;16.60;50.50;;;;;;5113430;28;20260;-65
2023/03/04 11:08:03;;;;;;;2.15;1.02;;;16.60;50.70;;;;;;5113983;28;20306;-65
2023/03/04 11:10:40;;;;;;;1.30;0.68;;;16.50;50.70;;;;;;5114061;28;20329;-64
2023/03/04 11:13:11;;;;;;;0.70;0.60;;;16.50;50.80;;;;;;5113207;28;20175;-65
2023/03/04 11:16:22;;;;;;;1.73;0.80;;;16.50;51.40;;;;;;5112966;28;20175;-65
2023/03/04 11:18:50;;;;;;;1.30;0.68;;;16.50;50.80;;;;;;5034197;28;20207;-65
2023/03/04 11:21:20;;;;;;;1.77;0.60;;;16.40;50.70;;;;;;5033726;28;20230;-65
2023/03/04 11:23:50;;;;;;;1.70;0.60;;;16.40;50.70;;;;;;5086249;28;20188;-65
2023/03/04 11:26:30;;;;;;;2.45;0.80;;;16.40;50.70;;;;;;5112944;28;20173;-65
2023/03/04 11:28:59;;;;;;;2.38;0.60;;;16.40;50.70;;;;;;5112217;28;20654;-66
2023/03/04 11:31:34;;;;;;;2.22;0.70;;;16.40;50.70;;;;;;5112650;28;20192;-65
2023/03/04 11:34:07;;;;;;;2.25;0.73;;;16.40;50.70;;;;;;5112644;28;20313;-66
2023/03/04 11:36:48;;;;;;;1.15;0.60;;;16.40;50.70;;;;;;5112181;28;20173;-66
2023/03/04 11:39:19;;;;;;;1.25;0.60;;;16.40;50.70;;;;;;5113615;28;20168;-65
2023/03/04 11:41:50;;;;;;;1.15;0.60;;;16.50;50.70;;;;;;5111623;28;20165;-65
2023/03/04 11:44:16;;;;;;;2.85;0.77;;;16.50;50.50;;;;;;5112968;28;20181;-65
2023/03/04 11:46:53;;;;;;;2.42;1.00;;;16.50;50.50;;;;;;5113154;28;20657;-64
2023/03/04 11:50:07;;;;;;;0.75;0.70;;;16.50;50.50;;;;;;5111555;28;20177;-64
2023/03/04 11:52:46;;;;;;;0.90;0.60;;;16.50;50.50;;;;;;5100253;28;20209;-65
2023/03/04 11:55:50;;;;;;;1.63;0.73;;;16.40;50.50;;;;;;5112855;28;20173;-66
2023/03/04 11:58:18;;;;;;;1.25;0.60;;;16.40;50.60;;;;;;5110419;28;20223;-66
2023/03/04 12:00:54;;;;;;;1.95;0.73;;;16.40;50.60;;;;;;5113313;28;20277;-67
2023/03/04 12:03:56;;;;;;;0.45;0.43;;;16.40;50.60;;;;;;5112593;28;20635;-66
2023/03/04 12:06:43;;;;;;;1.58;0.70;;;16.40;50.60;;;;;;5078867;28;20180;-65
2023/03/04 12:09:32;;;;;;;1.48;0.70;;;16.50;50.50;;;;;;5112785;28;20177;-65
2023/03/04 12:12:39;;;;;;;0.50;0.35;;;16.50;50.50;;;;;;5111721;28;20171;-65
2023/03/04 12:15:16;;;;;;;2.03;0.70;;;16.50;50.40;;;;;;5111559;28;20665;-66
2023/03/04 12:18:07;;;;;;;1.65;0.60;;;16.50;50.40;;;;;;5112013;28;20282;-65
2023/03/04 12:20:50;;;;;;;0.80;0.50;;;16.50;50.40;;;;;;5111472;28;20242;-65
2023/03/04 12:23:53;;;;;;;0.63;0.63;;;16.50;50.30;;;;;;5111137;28;20173;-65
2023/03/04 12:26:33;;;;;;;0.77;0.50;;;16.50;50.40;;;;;;5090106;28;20268;-65
2023/03/04 12:29:14;;;;;;;0.60;0.60;;;16.50;50.50;;;;;;5112624;28;20173;-66
2023/03/04 12:31:41;;;;;;;1.20;0.63;;;16.40;50.50;;;;;;5111073;28;20248;-66
2023/03/04 12:34:26;;;;;;;0.55;0.50;;;16.40;50.60;;;;;;5111954;28;20256;-66
2023/03/04 12:37:14;;;;;;;1.95;0.50;;;16.40;50.70;;;;;;5111639;28;20200;-65
2023/03/04 12:39:42;;;;;;;0.85;0.50;;;16.30;50.80;;;;;;5111345;28;20170;-65
2023/03/04 12:42:16;;;;;;;0.77;0.52;;;16.30;50.80;;;;;;5111623;28;20177;-64
2023/03/04 12:45:08;;;;;;;1.42;0.70;;;16.30;50.80;;;;;;5111932;28;20254;-65
2023/03/04 12:48:02;;;;;;;0.57;0.57;;;16.20;50.70;;;;;;5111967;28;20174;-64
2023/03/04 12:50:37;;;;;;;1.90;0.57;;;16.30;50.90;;;;;;5110741;28;20181;-64
2023/03/04 12:53:45;;;;;;;1.25;0.73;;;16.30;50.80;;;;;;5115748;28;20313;-65
2023/03/04 12:56:30;;;;;;;0.65;0.35;;;16.30;50.80;;;;;;5108019;28;20191;-65